This is the latest recevied weather packets stored in our database for station/object DC1RS. If no packets are shown the sender has not sent any weather packets the latest 10 day(s).
| Time | Temp. | Humidity | Pressure | Rain* | Wind** | Luminosity | Snow |
|---|---|---|---|---|---|---|---|
| 1777813311 | 27.78° C | 28% | 1012.9 hPa | 0 mm | - | 721 W/m² | - |
| 1777812821 | 27.78° C | 28% | 1013.3 hPa | 0 mm | - | 752 W/m² | - |
| 1777812051 | 27.78° C | 29% | 1013.1 hPa | 0 mm | - | 773 W/m² | - |
| 1777810490 | 27.78° C | 28% | 1013.6 hPa | 0 mm | - | 807 W/m² | - |
| 1777808271 | 26.67° C | 31% | 1014.1 hPa | 0 mm | - | 825 W/m² | - |
| 1777806681 | 26.11° C | 33% | 1014.5 hPa | 0 mm | - | 829 W/m² | - |
| 1777804191 | 25° C | 34% | 1015.1 hPa | 0 mm | - | 801 W/m² | - |
| 1777802601 | 24.44° C | 37% | 1015.8 hPa | 0 mm | - | 760 W/m² | - |
| 1777801481 | 23.89° C | 39% | 1016 hPa | 0 mm | - | 748 W/m² | - |
| 1777800050 | 22.22° C | 39% | 1016.1 hPa | 0 mm | - | 717 W/m² | - |
| 1777798461 | 21.67° C | 42% | 1016.5 hPa | 0 mm | - | 654 W/m² | - |
| 1777796320 | 20° C | 46% | 1016.9 hPa | 0 mm | - | 559 W/m² | - |
| 1777794762 | 18.33° C | 50% | 1017 hPa | 0 mm | - | 475 W/m² | - |
| 1777792671 | 16.67° C | 52% | 1017.4 hPa | 0 mm | - | 355 W/m² | - |
| 1777791170 | 15.56° C | 55% | 1017.1 hPa | 0 mm | - | 316 W/m² | - |
| 1777789580 | 14.44° C | 56% | 1017 hPa | 0 mm | - | 222 W/m² | - |
| 1777787961 | 12.78° C | 60% | 1016.9 hPa | 0 mm | - | 188 W/m² | - |
| 1777785581 | 10.56° C | 71% | 1017.1 hPa | 0 mm | - | 93 W/m² | - |
| 1777784020 | 8.89° C | 80% | 1016.9 hPa | 0 mm | - | 52 W/m² | - |
| 1777781331 | 6.11° C | 83% | 1016.6 hPa | 0 mm | - | 16 W/m² | - |
| 1777779741 | 6.11° C | 82% | 1016.7 hPa | 0 mm | - | 2 W/m² | - |
| 1777779081 | 6.11° C | 81% | 1016.8 hPa | 0 mm | - | 1 W/m² | - |
| 1777778320 | 6.11° C | 80% | 1016.7 hPa | 0 mm | - | 0 W/m² | - |
| 1777776701 | 6.67° C | 77% | 1016 hPa | 0 mm | - | 0 W/m² | - |
| 1777775001 | 7.22° C | 76% | 1016.3 hPa | 0 mm | - | 0 W/m² | - |
* Rain latest hour (hover to see other rain measurements)
** Current wind speed in m/s (hover to see current wind gust speed)